Time;durP1;ratioP1;P1;durP2;ratioP2;P2;SDS_P1;SDS_P2;PMS_P1;PMS_P2;Temp;Humidity;BMP_temperature;BMP_pressure;BME280_temperature;BME280_humidity;BME280_pressure;Samples;Min_cycle;Max_cycle;Signal;HPM_P1;HPM_P2
2023/05/09 00:01:46;;;;;;;;;;;;;;;;;;4917785;29;1894;-45
2023/05/09 00:04:15;;;;;;;;;;;;;;;;;;4917906;29;2019;-44
2023/05/09 00:06:42;;;;;;;;;;;;;;;;;;4917760;29;1941;-48
2023/05/09 00:09:09;;;;;;;;;;;;;;;;;;4917662;29;1940;-48
2023/05/09 00:11:36;;;;;;;;;;;;;;;;;;4917455;29;2002;-50
2023/05/09 00:14:03;;;;;;;;;;;;;;;;;;4917757;29;1671;-47
2023/05/09 00:16:31;;;;;;;;;;;;;;;;;;4917512;29;1819;-47
2023/05/09 00:18:59;;;;;;;;;;;;;;;;;;4917440;29;1852;-42
2023/05/09 00:21:27;;;;;;;;;;;;;;;;;;4936283;29;1708;-46
2023/05/09 00:23:57;;;;;;;;;;;;;;;;;;4936121;29;1972;-53
2023/05/09 00:26:25;;;;;;;;;;;;;;;;;;4936630;29;1844;-53
2023/05/09 00:28:53;;;;;;;;;;;;;;;;;;4936213;29;1967;-48
2023/05/09 00:31:20;;;;;;;;;;;;;;;;;;4936236;29;1884;-41
2023/05/09 00:33:47;;;;;;;;;;;;;;;;;;4935924;29;1762;-50
2023/05/09 00:36:15;;;;;;;;;;;;;;;;;;4936478;29;1951;-40
2023/05/09 00:38:42;;;;;;;;;;;;;;;;;;4936275;29;2065;-44
2023/05/09 00:41:09;;;;;;;;;;;;;;;;;;4936105;29;2232;-47
2023/05/09 00:43:36;;;;;;;;;;;;;;;;;;4936032;29;2018;-41
2023/05/09 00:46:04;;;;;;;;;;;;;;;;;;4934705;29;1853;-43
2023/05/09 00:48:31;;;;;;;;;;;;;;;;;;4936006;29;2101;-43
2023/05/09 00:50:58;;;;;;;;;;;;;;;;;;4935977;29;1963;-40
2023/05/09 00:53:26;;;;;;;;;;;;;;;;;;4935822;29;2041;-43
2023/05/09 00:55:54;;;;;;;;;;;;;;;;;;4934420;29;1866;-54
2023/05/09 00:58:21;;;;;;;;;;;;;;;;;;4934531;29;2347;-50
2023/05/09 01:00:49;;;;;;;;;;;;;;;;;;4935469;29;1927;-52
2023/05/09 01:03:16;;;;;;;;;;;;;;;;;;4934786;29;1789;-42
2023/05/09 01:05:43;;;;;;;;;;;;;;;;;;4934372;29;2156;-44
2023/05/09 01:08:31;;;;;;;;;;;;;;;;;;4935569;29;1910;-43
2023/05/09 01:11:17;;;;;;;;;;;;;;;;;;4934895;29;1962;-56
2023/05/09 01:14:05;;;;;;;;;;;;;;;;;;4935389;29;2014;-52
2023/05/09 01:16:46;;;;;;;;;;;;;;;;;;4935585;29;2060;-46
2023/05/09 01:19:19;;;;;;;;;;;;;;;;;;4935385;29;2191;-50
2023/05/09 01:21:48;;;;;;;;;;;;;;;;;;4934155;29;2096;-49
2023/05/09 01:24:33;;;;;;;;;;;;;;;;;;4922390;29;2131;-47
2023/05/09 01:27:29;;;;;;;;;;;;;;;;;;4934180;29;2035;-40
2023/05/09 01:29:58;;;;;;;;;;;;;;;;;;4966367;28;2325;-45
2023/05/09 01:32:29;;;;;;;;;;;;;;;;;;4935359;29;2022;-53
2023/05/09 01:34:58;;;;;;;;;;;;;;;;;;4933776;29;1991;-39
2023/05/09 01:37:32;;;;;;;;;;;;;;;;;;4935286;29;1864;-40
2023/05/09 01:40:08;;;;;;;;;;;;;;;;;;4933796;29;2127;-51
2023/05/09 01:42:41;;;;;;;;;;;;;;;;;;4934749;29;2017;-57
2023/05/09 01:45:09;;;;;;;;;;;;;;;;;;4934734;29;2115;-48
2023/05/09 01:47:37;;;;;;;;;;;;;;;;;;4934842;29;1609;-44
2023/05/09 01:50:06;;;;;;;;;;;;;;;;;;4934652;29;1978;-45
2023/05/09 01:52:34;;;;;;;;;;;;;;;;;;4929087;29;2026;-54
2023/05/09 01:55:05;;;;;;;;;;;;;;;;;;4914528;29;1957;-58
2023/05/09 01:57:34;;;;;;;;;;;;;;;;;;4914547;29;1957;-48
2023/05/09 02:00:01;;;;;;;;;;;;;;;;;;4914426;29;2107;-50
2023/05/09 02:02:39;;;;;;;;;;;;;;;;;;4915585;29;1967;-51
2023/05/09 02:05:08;;;;;;;;;;;;;;;;;;4915506;29;1852;-52
2023/05/09 02:07:36;;;;;;;;;;;;;;;;;;4914051;29;2097;-55
2023/05/09 02:10:04;;;;;;;;;;;;;;;;;;4914399;29;1953;-50
2023/05/09 02:12:31;;;;;;;;;;;;;;;;;;4914186;29;1977;-47
2023/05/09 02:14:58;;;;;;;;;;;;;;;;;;4913570;29;2089;-55
2023/05/09 02:17:28;;;;;;;;;;;;;;;;;;4915578;29;1989;-49
2023/05/09 02:19:56;;;;;;;;;;;;;;;;;;4921880;29;1931;-52
2023/05/09 02:22:23;;;;;;;;;;;;;;;;;;4933036;29;2120;-47
2023/05/09 02:24:50;;;;;;;;;;;;;;;;;;4932939;29;2032;-45
2023/05/09 02:27:18;;;;;;;;;;;;;;;;;;4933088;29;2008;-40
2023/05/09 02:29:48;;;;;;;;;;;;;;;;;;4934157;29;1979;-49
2023/05/09 02:32:18;;;;;;;;;;;;;;;;;;4934123;29;1971;-48
2023/05/09 02:34:46;;;;;;;;;;;;;;;;;;4932689;29;2065;-41
2023/05/09 02:37:14;;;;;;;;;;;;;;;;;;4934035;29;1680;-41
2023/05/09 02:39:41;;;;;;;;;;;;;;;;;;4932563;29;2033;-48
2023/05/09 02:42:10;;;;;;;;;;;;;;;;;;4933993;29;2138;-52
2023/05/09 02:44:40;;;;;;;;;;;;;;;;;;4933855;29;1985;-50
2023/05/09 02:47:07;;;;;;;;;;;;;;;;;;4933747;29;1890;-52
2023/05/09 02:49:34;;;;;;;;;;;;;;;;;;4932501;29;1983;-40
2023/05/09 02:52:03;;;;;;;;;;;;;;;;;;4932736;29;2047;-52
2023/05/09 02:54:30;;;;;;;;;;;;;;;;;;4933693;29;1911;-58
2023/05/09 02:56:58;;;;;;;;;;;;;;;;;;4933456;29;2050;-47
2023/05/09 02:59:25;;;;;;;;;;;;;;;;;;4933465;29;1871;-50
2023/05/09 03:01:55;;;;;;;;;;;;;;;;;;4933582;29;1977;-54
2023/05/09 03:04:22;;;;;;;;;;;;;;;;;;4932335;29;2086;-49
2023/05/09 03:06:49;;;;;;;;;;;;;;;;;;4933637;29;1945;-41
2023/05/09 03:09:16;;;;;;;;;;;;;;;;;;4932440;29;1914;-41
2023/05/09 03:11:44;;;;;;;;;;;;;;;;;;4931907;29;1922;-39
2023/05/09 03:14:12;;;;;;;;;;;;;;;;;;4933606;29;2065;-43
2023/05/09 03:16:39;;;;;;;;;;;;;;;;;;4933268;29;2111;-47
2023/05/09 03:19:16;;;;;;;;;;;;;;;;;;4932792;29;1971;-43
2023/05/09 03:21:44;;;;;;;;;;;;;;;;;;4931944;29;2057;-45
2023/05/09 03:24:11;;;;;;;;;;;;;;;;;;4933463;29;1820;-55
2023/05/09 03:26:38;;;;;;;;;;;;;;;;;;4930483;29;2067;-51
2023/05/09 03:29:05;;;;;;;;;;;;;;;;;;4932086;29;1974;-53
2023/05/09 03:31:33;;;;;;;;;;;;;;;;;;4933349;29;1914;-47
2023/05/09 03:34:00;;;;;;;;;;;;;;;;;;4932060;29;2246;-50
2023/05/09 03:36:28;;;;;;;;;;;;;;;;;;4933336;29;1922;-50
2023/05/09 03:38:55;;;;;;;;;;;;;;;;;;4931799;29;1889;-55
2023/05/09 03:41:22;;;;;;;;;;;;;;;;;;4931765;29;1960;-39
2023/05/09 03:43:49;;;;;;;;;;;;;;;;;;4932183;29;2055;-54
2023/05/09 03:46:16;;;;;;;;;;;;;;;;;;4932925;29;2069;-42
2023/05/09 03:48:46;;;;;;;;;;;;;;;;;;4931758;29;2029;-46
2023/05/09 03:51:14;;;;;;;;;;;;;;;;;;4931930;29;1962;-49
2023/05/09 03:53:45;;;;;;;;;;;;;;;;;;4932452;29;1965;-50
2023/05/09 03:56:13;;;;;;;;;;;;;;;;;;4931872;29;1984;-41
2023/05/09 03:58:46;;;;;;;;;;;;;;;;;;4931547;29;1994;-57
2023/05/09 04:01:14;;;;;;;;;;;;;;;;;;4931889;29;1822;-46
2023/05/09 04:03:42;;;;;;;;;;;;;;;;;;4931496;29;1936;-47
2023/05/09 04:06:11;;;;;;;;;;;;;;;;;;4932956;29;1932;-56
2023/05/09 04:08:41;;;;;;;;;;;;;;;;;;4932713;29;1923;-51
2023/05/09 04:11:09;;;;;;;;;;;;;;;;;;4932876;29;1987;-48
2023/05/09 04:13:40;;;;;;;;;;;;;;;;;;4931562;29;1990;-49
2023/05/09 04:16:25;;;;;;;;;;;;;;;;;;4931293;29;1996;-41
2023/05/09 04:18:53;;;;;;;;;;;;;;;;;;4931677;29;2180;-46
2023/05/09 04:21:20;;;;;;;;;;;;;;;;;;4931794;29;2145;-45
2023/05/09 04:23:50;;;;;;;;;;;;;;;;;;4931583;29;1924;-51
2023/05/09 04:26:23;;;;;;;;;;;;;;;;;;4931834;29;1863;-41
2023/05/09 04:28:53;;;;;;;;;;;;;;;;;;4931393;29;2202;-43
2023/05/09 04:31:22;;;;;;;;;;;;;;;;;;4931875;29;2179;-41
2023/05/09 04:33:51;;;;;;;;;;;;;;;;;;4931432;29;2156;-48
2023/05/09 04:36:19;;;;;;;;;;;;;;;;;;4931166;29;2154;-58
2023/05/09 04:38:47;;;;;;;;;;;;;;;;;;4934084;29;1981;-52
2023/05/09 04:41:20;;;;;;;;;;;;;;;;;;4935026;29;2010;-42
2023/05/09 04:43:47;;;;;;;;;;;;;;;;;;4934425;29;1868;-51
2023/05/09 04:46:14;;;;;;;;;;;;;;;;;;4936093;29;2129;-55
2023/05/09 04:48:41;;;;;;;;;;;;;;;;;;4935826;29;2078;-48
2023/05/09 04:51:09;;;;;;;;;;;;;;;;;;4936189;29;1903;-58
2023/05/09 04:53:36;;;;;;;;;;;;;;;;;;4934307;29;2145;-39
2023/05/09 04:56:04;;;;;;;;;;;;;;;;;;4934453;29;2033;-39
2023/05/09 04:58:33;;;;;;;;;;;;;;;;;;4934661;29;1904;-47
2023/05/09 05:01:00;;;;;;;;;;;;;;;;;;4934614;29;2053;-43
2023/05/09 05:03:28;;;;;;;;;;;;;;;;;;4935959;29;2207;-42
2023/05/09 05:05:55;;;;;;;;;;;;;;;;;;4934311;29;2100;-42
2023/05/09 05:08:23;;;;;;;;;;;;;;;;;;4934575;29;2116;-49
2023/05/09 05:10:50;;;;;;;;;;;;;;;;;;4935080;29;2052;-48
2023/05/09 05:13:18;;;;;;;;;;;;;;;;;;4935486;29;1938;-39
2023/05/09 05:15:49;;;;;;;;;;;;;;;;;;4933989;29;2069;-40
2023/05/09 05:18:18;;;;;;;;;;;;;;;;;;4934184;29;1854;-39
2023/05/09 05:20:45;;;;;;;;;;;;;;;;;;4933838;29;1876;-39
2023/05/09 05:23:12;;;;;;;;;;;;;;;;;;4935138;29;1952;-41
2023/05/09 05:25:39;;;;;;;;;;;;;;;;;;4933719;29;1970;-60
2023/05/09 05:28:07;;;;;;;;;;;;;;;;;;4935373;29;1972;-60
2023/05/09 05:30:37;;;;;;;;;;;;;;;;;;4933698;29;2005;-59
2023/05/09 05:33:04;;;;;;;;;;;;;;;;;;4934067;29;1922;-39
2023/05/09 05:35:32;;;;;;;;;;;;;;;;;;4934144;29;1945;-46
2023/05/09 05:38:01;;;;;;;;;;;;;;;;;;4933554;29;1959;-56
2023/05/09 05:40:28;;;;;;;;;;;;;;;;;;4935182;29;1928;-39
2023/05/09 05:42:59;;;;;;;;;;;;;;;;;;4933637;29;1954;-43
2023/05/09 05:45:29;;;;;;;;;;;;;;;;;;4933881;29;2178;-42
2023/05/09 05:47:57;;;;;;;;;;;;;;;;;;4933485;29;1985;-40
2023/05/09 05:50:27;;;;;;;;;;;;;;;;;;4934279;29;2031;-52
2023/05/09 05:52:54;;;;;;;;;;;;;;;;;;4933672;29;2068;-56
2023/05/09 05:55:22;;;;;;;;;;;;;;;;;;4933501;29;1810;-40
2023/05/09 05:57:49;;;;;;;;;;;;;;;;;;4933075;29;2145;-58
2023/05/09 06:00:17;;;;;;;;;;;;;;;;;;4934622;29;1937;-39
2023/05/09 06:02:53;;;;;;;;;;;;;;;;;;4934606;29;1965;-60
2023/05/09 06:05:29;;;;;;;;;;;;;;;;;;4933611;29;1936;-55
2023/05/09 06:07:56;;;;;;;;;;;;;;;;;;4934235;29;1739;-55
2023/05/09 06:10:24;;;;;;;;;;;;;;;;;;4933397;29;2031;-57
2023/05/09 06:12:51;;;;;;;;;;;;;;;;;;4934138;29;1904;-57
2023/05/09 06:15:19;;;;;;;;;;;;;;;;;;4933087;29;2166;-57
2023/05/09 06:17:48;;;;;;;;;;;;;;;;;;4932899;29;2152;-40
2023/05/09 06:20:15;;;;;;;;;;;;;;;;;;4930942;29;1992;-50
2023/05/09 06:22:43;;;;;;;;;;;;;;;;;;4914069;29;1953;-56
2023/05/09 06:25:10;;;;;;;;;;;;;;;;;;4914139;29;2005;-40
2023/05/09 06:27:37;;;;;;;;;;;;;;;;;;4914987;29;2031;-40
2023/05/09 06:30:05;;;;;;;;;;;;;;;;;;4913942;29;2136;-58
2023/05/09 06:32:50;;;;;;;;;;;;;;;;;;4914963;29;1916;-40
2023/05/09 06:35:17;;;;;;;;;;;;;;;;;;4915089;29;2011;-39
2023/05/09 06:37:44;;;;;;;;;;;;;;;;;;4914617;29;1966;-54
2023/05/09 06:40:14;;;;;;;;;;;;;;;;;;4914895;29;2143;-57
2023/05/09 06:42:41;;;;;;;;;;;;;;;;;;4914921;29;1797;-40
2023/05/09 06:45:08;;;;;;;;;;;;;;;;;;4915014;29;1960;-55
2023/05/09 06:47:35;;;;;;;;;;;;;;;;;;4914825;29;2145;-43
2023/05/09 06:50:03;;;;;;;;;;;;;;;;;;4915019;29;2205;-61
2023/05/09 06:52:30;;;;;;;;;;;;;;;;;;4919229;29;1926;-61
2023/05/09 06:54:57;;;;;;;;;;;;;;;;;;4933851;29;1800;-39
2023/05/09 06:57:25;;;;;;;;;;;;;;;;;;4933451;29;2070;-59
2023/05/09 06:59:52;;;;;;;;;;;;;;;;;;4933542;29;1849;-57
2023/05/09 07:02:19;;;;;;;;;;;;;;;;;;4933009;29;2044;-61
2023/05/09 07:04:46;;;;;;;;;;;;;;;;;;4933594;29;2005;-54
2023/05/09 07:07:13;;;;;;;;;;;;;;;;;;4933418;29;1940;-58
2023/05/09 07:09:40;;;;;;;;;;;;;;;;;;4933221;29;2152;-51
2023/05/09 07:12:08;;;;;;;;;;;;;;;;;;4933403;29;1844;-49
2023/05/09 07:14:35;;;;;;;;;;;;;;;;;;4933457;29;2034;-47
2023/05/09 07:17:02;;;;;;;;;;;;;;;;;;4933503;29;1983;-46
2023/05/09 07:19:47;;;;;;;;;;;;;;;;;;4932998;29;2069;-58
2023/05/09 07:22:14;;;;;;;;;;;;;;;;;;4933562;29;1987;-48
2023/05/09 07:24:43;;;;;;;;;;;;;;;;;;4933325;29;1873;-49
2023/05/09 07:27:10;;;;;;;;;;;;;;;;;;4933418;29;2099;-40
2023/05/09 07:29:37;;;;;;;;;;;;;;;;;;4933098;29;1910;-39
2023/05/09 07:32:05;;;;;;;;;;;;;;;;;;4933402;29;2020;-40
2023/05/09 07:34:32;;;;;;;;;;;;;;;;;;4933709;29;1892;-42
2023/05/09 07:36:59;;;;;;;;;;;;;;;;;;4933180;29;1794;-51
2023/05/09 07:39:27;;;;;;;;;;;;;;;;;;4932865;29;2132;-40
2023/05/09 07:41:54;;;;;;;;;;;;;;;;;;4933221;29;1981;-39
2023/05/09 07:44:23;;;;;;;;;;;;;;;;;;4933343;29;2021;-55
2023/05/09 07:46:50;;;;;;;;;;;;;;;;;;4932910;29;2037;-50
2023/05/09 07:49:18;;;;;;;;;;;;;;;;;;4933067;29;1985;-40
2023/05/09 07:51:45;;;;;;;;;;;;;;;;;;4933081;29;1816;-61
2023/05/09 07:54:12;;;;;;;;;;;;;;;;;;4933258;29;2139;-57
2023/05/09 07:56:40;;;;;;;;;;;;;;;;;;4932780;29;1975;-60
2023/05/09 07:59:07;;;;;;;;;;;;;;;;;;4933074;29;2014;-62
2023/05/09 08:01:34;;;;;;;;;;;;;;;;;;4933193;29;1809;-39
2023/05/09 08:04:04;;;;;;;;;;;;;;;;;;4933248;29;1966;-58
2023/05/09 08:06:31;;;;;;;;;;;;;;;;;;4933111;29;2060;-60
2023/05/09 08:08:59;;;;;;;;;;;;;;;;;;4932704;29;2086;-51
2023/05/09 08:11:26;;;;;;;;;;;;;;;;;;4932983;29;2001;-60
2023/05/09 08:13:54;;;;;;;;;;;;;;;;;;4935942;28;1910;-60
2023/05/09 08:16:21;;;;;;;;;;;;;;;;;;4935195;29;2073;-40
2023/05/09 08:18:48;;;;;;;;;;;;;;;;;;4936237;29;1858;-42
2023/05/09 08:21:15;;;;;;;;;;;;;;;;;;4936446;29;2061;-50
2023/05/09 08:23:42;;;;;;;;;;;;;;;;;;4936570;29;2051;-62
2023/05/09 08:26:09;;;;;;;;;;;;;;;;;;4936239;29;2089;-49
2023/05/09 08:28:36;;;;;;;;;;;;;;;;;;4935970;28;2082;-42
2023/05/09 08:31:04;;;;;;;;;;;;;;;;;;4936399;29;1974;-39
2023/05/09 08:33:31;;;;;;;;;;;;;;;;;;4936491;29;1978;-38
2023/05/09 08:35:58;;;;;;;;;;;;;;;;;;4935856;29;1934;-38
2023/05/09 08:38:25;;;;;;;;;;;;;;;;;;4936145;29;1916;-40
2023/05/09 08:40:58;;;;;;;;;;;;;;;;;;4935830;29;1968;-62
2023/05/09 08:43:27;;;;;;;;;;;;;;;;;;4936089;29;1827;-40
2023/05/09 08:45:57;;;;;;;;;;;;;;;;;;4935899;29;1900;-52
2023/05/09 08:48:24;;;;;;;;;;;;;;;;;;4935985;29;1945;-48
2023/05/09 08:50:51;;;;;;;;;;;;;;;;;;4935677;29;1948;-40
2023/05/09 08:53:20;;;;;;;;;;;;;;;;;;4935905;29;2024;-61
2023/05/09 08:55:48;;;;;;;;;;;;;;;;;;4935762;29;1822;-57
2023/05/09 08:58:18;;;;;;;;;;;;;;;;;;4929799;29;1926;-61
2023/05/09 09:00:46;;;;;;;;;;;;;;;;;;4916657;29;2049;-58
2023/05/09 09:03:13;;;;;;;;;;;;;;;;;;4916787;29;1849;-39
2023/05/09 09:05:41;;;;;;;;;;;;;;;;;;4916609;29;2106;-60
2023/05/09 09:08:09;;;;;;;;;;;;;;;;;;4916659;29;1944;-38
2023/05/09 09:10:38;;;;;;;;;;;;;;;;;;4916504;29;2176;-40
2023/05/09 09:13:07;;;;;;;;;;;;;;;;;;4916901;29;1948;-41
2023/05/09 09:15:37;;;;;;;;;;;;;;;;;;4916890;29;1919;-51
2023/05/09 09:18:08;;;;;;;;;;;;;;;;;;4916824;29;2057;-59
2023/05/09 09:20:47;;;;;;;;;;;;;;;;;;4928674;29;2080;-40
2023/05/09 09:23:19;;;;;;;;;;;;;;;;;;4935237;29;2036;-51
2023/05/09 09:25:47;;;;;;;;;;;;;;;;;;4934539;29;1963;-60
2023/05/09 09:28:15;;;;;;;;;;;;;;;;;;4935374;29;2168;-45
2023/05/09 09:30:42;;;;;;;;;;;;;;;;;;4935332;29;1978;-59
2023/05/09 09:33:17;;;;;;;;;;;;;;;;;;4934944;29;1961;-56
2023/05/09 09:35:44;;;;;;;;;;;;;;;;;;4935260;29;2063;-61
2023/05/09 09:38:12;;;;;;;;;;;;;;;;;;4935387;29;2089;-60
2023/05/09 09:40:39;;;;;;;;;;;;;;;;;;4935065;29;2001;-60
2023/05/09 09:43:06;;;;;;;;;;;;;;;;;;4935178;29;1908;-46
2023/05/09 09:45:35;;;;;;;;;;;;;;;;;;4935280;29;2000;-40
2023/05/09 09:48:04;;;;;;;;;;;;;;;;;;4935336;29;2253;-48
2023/05/09 09:50:32;;;;;;;;;;;;;;;;;;4935154;29;1924;-60
2023/05/09 09:52:59;;;;;;;;;;;;;;;;;;4934410;29;2142;-39
2023/05/09 09:55:27;;;;;;;;;;;;;;;;;;4935021;29;2025;-58
2023/05/09 09:57:55;;;;;;;;;;;;;;;;;;4934574;29;2040;-60
2023/05/09 10:00:29;;;;;;;;;;;;;;;;;;4934478;29;2083;-58
2023/05/09 10:02:57;;;;;;;;;;;;;;;;;;4934517;29;1901;-60
2023/05/09 10:05:25;;;;;;;;;;;;;;;;;;4934630;29;2073;-55
2023/05/09 10:07:59;;;;;;;;;;;;;;;;;;4934642;29;2014;-60
2023/05/09 10:10:27;;;;;;;;;;;;;;;;;;4934592;29;2003;-60
2023/05/09 10:13:05;;;;;;;;;;;;;;;;;;4934237;29;1796;-60
2023/05/09 10:15:33;;;;;;;;;;;;;;;;;;4934144;29;1932;-60
2023/05/09 10:18:18;;;;;;;;;;;;;;;;;;4934852;29;1903;-51
2023/05/09 10:20:46;;;;;;;;;;;;;;;;;;4934216;29;2061;-47
2023/05/09 10:23:14;;;;;;;;;;;;;;;;;;4934161;29;1876;-58
2023/05/09 10:26:02;;;;;;;;;;;;;;;;;;4934127;29;1878;-56
2023/05/09 10:28:31;;;;;;;;;;;;;;;;;;4934259;29;1839;-42
2023/05/09 10:31:01;;;;;;;;;;;;;;;;;;4934017;29;2156;-58
2023/05/09 10:33:35;;;;;;;;;;;;;;;;;;4934054;29;2088;-59
2023/05/09 10:36:03;;;;;;;;;;;;;;;;;;4934187;29;1752;-40
2023/05/09 10:38:30;;;;;;;;;;;;;;;;;;4933997;29;2071;-56
2023/05/09 10:40:58;;;;;;;;;;;;;;;;;;4933799;29;2056;-46
2023/05/09 10:43:26;;;;;;;;;;;;;;;;;;4934015;29;1965;-56
2023/05/09 10:45:53;;;;;;;;;;;;;;;;;;4933728;29;1906;-59
2023/05/09 10:48:21;;;;;;;;;;;;;;;;;;4933284;29;1799;-59
2023/05/09 10:50:48;;;;;;;;;;;;;;;;;;4933631;29;1984;-59
2023/05/09 10:53:20;;;;;;;;;;;;;;;;;;4933863;29;1920;-59
2023/05/09 10:55:49;;;;;;;;;;;;;;;;;;4933496;29;1968;-40
2023/05/09 10:58:29;;;;;;;;;;;;;;;;;;4933931;29;1932;-52
2023/05/09 11:00:58;;;;;;;;;;;;;;;;;;4933398;29;2017;-54
2023/05/09 11:03:25;;;;;;;;;;;;;;;;;;4933843;29;1969;-54
2023/05/09 11:05:57;;;;;;;;;;;;;;;;;;4933564;29;1868;-54
2023/05/09 11:08:25;;;;;;;;;;;;;;;;;;4933748;29;2197;-44
2023/05/09 11:10:56;;;;;;;;;;;;;;;;;;4933355;29;1990;-41
2023/05/09 11:13:24;;;;;;;;;;;;;;;;;;4933483;29;1982;-53
2023/05/09 11:16:00;;;;;;;;;;;;;;;;;;4933394;29;2032;-51
2023/05/09 11:18:28;;;;;;;;;;;;;;;;;;4933461;29;2110;-59
2023/05/09 11:20:55;;;;;;;;;;;;;;;;;;4933173;29;2110;-59
2023/05/09 11:23:26;;;;;;;;;;;;;;;;;;4932336;29;2319;-41
2023/05/09 11:26:03;;;;;;;;;;;;;;;;;;4933120;29;1995;-59
2023/05/09 11:28:31;;;;;;;;;;;;;;;;;;4933611;29;1995;-60
2023/05/09 11:31:07;;;;;;;;;;;;;;;;;;4933401;29;1991;-43
2023/05/09 11:33:35;;;;;;;;;;;;;;;;;;4933605;29;1888;-57
2023/05/09 11:36:19;;;;;;;;;;;;;;;;;;4933447;29;1985;-59
2023/05/09 11:38:46;;;;;;;;;;;;;;;;;;4933110;29;1801;-59
2023/05/09 11:41:14;;;;;;;;;;;;;;;;;;4933112;29;2057;-40
2023/05/09 11:43:43;;;;;;;;;;;;;;;;;;4933195;29;2027;-42
2023/05/09 11:46:11;;;;;;;;;;;;;;;;;;4932345;29;2431;-39
2023/05/09 11:48:39;;;;;;;;;;;;;;;;;;4935992;28;1960;-39
2023/05/09 11:51:06;;;;;;;;;;;;;;;;;;4937449;29;1908;-54
2023/05/09 11:53:33;;;;;;;;;;;;;;;;;;4937317;29;1982;-40
2023/05/09 11:56:01;;;;;;;;;;;;;;;;;;4937126;29;1996;-40
2023/05/09 11:58:29;;;;;;;;;;;;;;;;;;4937129;29;1928;-40
2023/05/09 12:00:57;;;;;;;;;;;;;;;;;;4936549;29;2063;-40
2023/05/09 12:03:24;;;;;;;;;;;;;;;;;;4936662;29;1981;-43
2023/05/09 12:05:52;;;;;;;;;;;;;;;;;;4936767;29;1760;-44
2023/05/09 12:08:21;;;;;;;;;;;;;;;;;;4936990;29;2019;-44
2023/05/09 12:10:48;;;;;;;;;;;;;;;;;;4936482;29;2147;-53
2023/05/09 12:13:16;;;;;;;;;;;;;;;;;;4937032;29;1988;-40
2023/05/09 12:15:44;;;;;;;;;;;;;;;;;;4936534;29;1831;-43
2023/05/09 12:18:11;;;;;;;;;;;;;;;;;;4935572;29;1957;-39
2023/05/09 12:20:46;;;;;;;;;;;;;;;;;;4936143;29;2245;-42
2023/05/09 12:23:13;;;;;;;;;;;;;;;;;;4936617;29;1931;-51
2023/05/09 12:25:47;;;;;;;;;;;;;;;;;;4936211;29;1926;-51
2023/05/09 12:28:15;;;;;;;;;;;;;;;;;;4936265;29;1962;-60
2023/05/09 12:30:43;;;;;;;;;;;;;;;;;;4936278;29;2048;-58
2023/05/09 12:33:11;;;;;;;;;;;;;;;;;;4936480;29;2105;-59
2023/05/09 12:35:38;;;;;;;;;;;;;;;;;;4936272;29;1924;-53
2023/05/09 12:38:05;;;;;;;;;;;;;;;;;;4936504;29;1958;-59
2023/05/09 12:40:32;;;;;;;;;;;;;;;;;;4930498;29;1955;-56
2023/05/09 12:43:01;;;;;;;;;;;;;;;;;;4916876;29;2013;-42
2023/05/09 12:45:30;;;;;;;;;;;;;;;;;;4917308;29;1946;-47
2023/05/09 12:48:01;;;;;;;;;;;;;;;;;;4916982;29;1913;-39
2023/05/09 12:50:34;;;;;;;;;;;;;;;;;;4917040;29;1925;-41
2023/05/09 12:53:03;;;;;;;;;;;;;;;;;;4924976;29;1943;-39
2023/05/09 12:55:31;;;;;;;;;;;;;;;;;;4935888;29;1999;-39
2023/05/09 12:58:00;;;;;;;;;;;;;;;;;;4935702;29;2332;-53
2023/05/09 13:00:28;;;;;;;;;;;;;;;;;;4936037;29;2057;-60
2023/05/09 13:02:55;;;;;;;;;;;;;;;;;;4935829;29;1968;-60
2023/05/09 13:05:23;;;;;;;;;;;;;;;;;;4935887;29;1787;-43
2023/05/09 13:07:51;;;;;;;;;;;;;;;;;;4935205;29;2059;-40
2023/05/09 13:10:26;;;;;;;;;;;;;;;;;;4935929;29;1764;-43
2023/05/09 13:12:53;;;;;;;;;;;;;;;;;;4935110;29;2718;-58
2023/05/09 13:15:21;;;;;;;;;;;;;;;;;;4935767;29;2091;-60
2023/05/09 13:17:49;;;;;;;;;;;;;;;;;;4935500;29;2005;-39
2023/05/09 13:20:17;;;;;;;;;;;;;;;;;;4935324;29;2116;-60
2023/05/09 13:22:45;;;;;;;;;;;;;;;;;;4935360;29;1929;-58
2023/05/09 13:25:12;;;;;;;;;;;;;;;;;;4935426;29;1982;-44
2023/05/09 13:27:39;;;;;;;;;;;;;;;;;;4935207;29;2108;-40
2023/05/09 13:30:07;;;;;;;;;;;;;;;;;;4935584;29;1898;-40
2023/05/09 13:32:35;;;;;;;;;;;;;;;;;;4935671;29;2032;-40
2023/05/09 13:35:05;;;;;;;;;;;;;;;;;;4935414;29;1783;-54
2023/05/09 13:37:33;;;;;;;;;;;;;;;;;;4935502;29;2033;-58
2023/05/09 13:40:00;;;;;;;;;;;;;;;;;;4934843;29;2076;-54
2023/05/09 13:42:27;;;;;;;;;;;;;;;;;;4934928;29;2021;-60
2023/05/09 13:44:54;;;;;;;;;;;;;;;;;;4934976;29;1959;-59
2023/05/09 13:47:21;;;;;;;;;;;;;;;;;;4934791;29;1916;-55
2023/05/09 13:49:49;;;;;;;;;;;;;;;;;;4934852;29;2074;-55
2023/05/09 13:52:16;;;;;;;;;;;;;;;;;;4934735;29;2137;-60
2023/05/09 13:54:43;;;;;;;;;;;;;;;;;;4934588;29;2005;-45
2023/05/09 13:57:11;;;;;;;;;;;;;;;;;;4934798;29;1851;-40
2023/05/09 13:59:40;;;;;;;;;;;;;;;;;;4934002;29;2009;-45
2023/05/09 14:02:09;;;;;;;;;;;;;;;;;;4934548;29;1852;-39
2023/05/09 14:04:37;;;;;;;;;;;;;;;;;;4934888;29;1918;-41
2023/05/09 14:07:04;;;;;;;;;;;;;;;;;;4934909;29;2001;-57
2023/05/09 14:09:37;;;;;;;;;;;;;;;;;;4934548;29;2040;-54
2023/05/09 14:12:04;;;;;;;;;;;;;;;;;;4934564;29;1911;-58
2023/05/09 14:14:32;;;;;;;;;;;;;;;;;;4934503;29;1974;-48
2023/05/09 14:17:00;;;;;;;;;;;;;;;;;;4934249;29;1993;-55
2023/05/09 14:19:27;;;;;;;;;;;;;;;;;;4934633;29;1792;-58
2023/05/09 14:21:54;;;;;;;;;;;;;;;;;;4934207;29;2238;-50
2023/05/09 14:24:22;;;;;;;;;;;;;;;;;;4934478;29;1963;-58
2023/05/09 14:26:49;;;;;;;;;;;;;;;;;;4933846;29;2009;-49
2023/05/09 14:29:16;;;;;;;;;;;;;;;;;;4934093;29;1931;-46
2023/05/09 14:31:43;;;;;;;;;;;;;;;;;;4934017;29;1972;-47
2023/05/09 14:34:10;;;;;;;;;;;;;;;;;;4934197;29;2038;-46
2023/05/09 14:36:38;;;;;;;;;;;;;;;;;;4932809;29;1954;-39
2023/05/09 14:39:05;;;;;;;;;;;;;;;;;;4934488;29;1948;-48
2023/05/09 14:41:32;;;;;;;;;;;;;;;;;;4933970;29;1947;-39
2023/05/09 14:44:00;;;;;;;;;;;;;;;;;;4933774;29;1979;-52
2023/05/09 14:46:27;;;;;;;;;;;;;;;;;;4934129;29;2141;-39
2023/05/09 14:48:56;;;;;;;;;;;;;;;;;;4933725;29;2135;-58
2023/05/09 14:51:23;;;;;;;;;;;;;;;;;;4933952;29;2130;-40
2023/05/09 14:53:52;;;;;;;;;;;;;;;;;;4933559;29;2095;-58
2023/05/09 14:56:19;;;;;;;;;;;;;;;;;;4933885;29;2056;-49
2023/05/09 14:58:46;;;;;;;;;;;;;;;;;;4933648;29;1859;-50
2023/05/09 15:01:14;;;;;;;;;;;;;;;;;;4933766;29;2148;-50
2023/05/09 15:03:41;;;;;;;;;;;;;;;;;;4933569;29;2084;-48
2023/05/09 15:06:09;;;;;;;;;;;;;;;;;;4933659;29;2250;-54
2023/05/09 15:08:36;;;;;;;;;;;;;;;;;;4933888;29;2038;-50
2023/05/09 15:11:03;;;;;;;;;;;;;;;;;;4933844;29;1903;-59
2023/05/09 15:13:30;;;;;;;;;;;;;;;;;;4933359;29;2039;-58
2023/05/09 15:15:58;;;;;;;;;;;;;;;;;;4933410;29;2107;-57
2023/05/09 15:18:27;;;;;;;;;;;;;;;;;;4933511;29;2122;-58
2023/05/09 15:20:54;;;;;;;;;;;;;;;;;;4933237;29;1942;-52
2023/05/09 15:23:24;;;;;;;;;;;;;;;;;;4932871;29;1880;-59
2023/05/09 15:25:51;;;;;;;;;;;;;;;;;;4933304;29;2027;-45
2023/05/09 15:28:18;;;;;;;;;;;;;;;;;;4933693;29;1989;-50
2023/05/09 15:30:45;;;;;;;;;;;;;;;;;;4933117;29;2086;-50
2023/05/09 15:33:12;;;;;;;;;;;;;;;;;;4933489;29;2311;-40
2023/05/09 15:35:39;;;;;;;;;;;;;;;;;;4933140;29;1774;-55
2023/05/09 15:38:10;;;;;;;;;;;;;;;;;;4933660;29;1912;-47
2023/05/09 15:40:39;;;;;;;;;;;;;;;;;;4933461;29;1948;-40
2023/05/09 15:43:09;;;;;;;;;;;;;;;;;;4933219;29;1965;-53
2023/05/09 15:45:42;;;;;;;;;;;;;;;;;;4933584;29;1938;-58
2023/05/09 15:48:14;;;;;;;;;;;;;;;;;;4933143;29;2001;-58
2023/05/09 15:50:43;;;;;;;;;;;;;;;;;;4932998;29;1836;-52
2023/05/09 15:53:10;;;;;;;;;;;;;;;;;;4933220;29;2137;-58
2023/05/09 15:55:37;;;;;;;;;;;;;;;;;;4933126;29;2004;-47
2023/05/09 15:58:04;;;;;;;;;;;;;;;;;;4933143;29;2118;-44
2023/05/09 16:00:31;;;;;;;;;;;;;;;;;;4933330;29;1880;-56
2023/05/09 16:02:58;;;;;;;;;;;;;;;;;;4932983;29;2157;-54
2023/05/09 16:05:26;;;;;;;;;;;;;;;;;;4933207;29;2086;-53
2023/05/09 16:07:53;;;;;;;;;;;;;;;;;;4932923;29;1914;-58
2023/05/09 16:10:21;;;;;;;;;;;;;;;;;;4933111;29;1980;-53
2023/05/09 16:12:48;;;;;;;;;;;;;;;;;;4932638;29;1982;-54
2023/05/09 16:15:15;;;;;;;;;;;;;;;;;;4933187;29;1996;-55
2023/05/09 16:17:43;;;;;;;;;;;;;;;;;;4932957;29;1952;-52
2023/05/09 16:20:12;;;;;;;;;;;;;;;;;;4932642;29;1977;-56
2023/05/09 16:22:40;;;;;;;;;;;;;;;;;;4932836;29;1959;-52
2023/05/09 16:25:07;;;;;;;;;;;;;;;;;;4932010;29;2053;-48
2023/05/09 16:27:34;;;;;;;;;;;;;;;;;;4931460;29;1886;-59
2023/05/09 16:30:02;;;;;;;;;;;;;;;;;;4930690;29;1794;-59
2023/05/09 16:32:29;;;;;;;;;;;;;;;;;;4931446;29;1927;-59
2023/05/09 16:34:57;;;;;;;;;;;;;;;;;;4934236;29;1925;-47
2023/05/09 16:37:24;;;;;;;;;;;;;;;;;;4935076;29;1932;-59
2023/05/09 16:39:51;;;;;;;;;;;;;;;;;;4935867;29;2017;-52
2023/05/09 16:42:18;;;;;;;;;;;;;;;;;;4936064;29;1988;-54
2023/05/09 16:44:46;;;;;;;;;;;;;;;;;;4936114;29;2071;-47
2023/05/09 16:47:13;;;;;;;;;;;;;;;;;;4936022;29;2011;-47
2023/05/09 16:49:41;;;;;;;;;;;;;;;;;;4936007;29;1928;-54
2023/05/09 16:52:08;;;;;;;;;;;;;;;;;;4936026;29;2084;-49
2023/05/09 16:54:35;;;;;;;;;;;;;;;;;;4936306;29;1918;-53
2023/05/09 16:57:05;;;;;;;;;;;;;;;;;;4935847;29;2334;-50
2023/05/09 16:59:32;;;;;;;;;;;;;;;;;;4936392;29;1983;-46
2023/05/09 17:01:59;;;;;;;;;;;;;;;;;;4936043;29;2055;-42
2023/05/09 17:04:28;;;;;;;;;;;;;;;;;;4935983;29;1879;-56
2023/05/09 17:06:55;;;;;;;;;;;;;;;;;;4935674;29;2009;-47
2023/05/09 17:09:22;;;;;;;;;;;;;;;;;;4935710;29;2068;-44
2023/05/09 17:11:49;;;;;;;;;;;;;;;;;;4935519;29;1938;-43
2023/05/09 17:14:16;;;;;;;;;;;;;;;;;;4935780;29;2173;-45